Time;durP1;ratioP1;P1;durP2;ratioP2;P2;SDS_P1;SDS_P2;PMS_P1;PMS_P2;Temp;Humidity;BMP_temperature;BMP_pressure;BME280_temperature;BME280_humidity;BME280_pressure;Samples;Min_cycle;Max_cycle;Signal;HPM_P1;HPM_P2
2022/01/23 00:00:16;;;;;;;12.82;3.40;;;5.70;99.90;;;;;;5098197;28;20093;-78
2022/01/23 00:02:46;;;;;;;13.63;3.05;;;5.70;99.90;;;;;;5119415;28;20095;-78
2022/01/23 00:05:12;;;;;;;12.38;3.45;;;5.70;99.90;;;;;;5123919;28;20048;-78
2022/01/23 00:07:39;;;;;;;12.43;3.20;;;5.70;99.90;;;;;;5120445;28;20131;-78
2022/01/23 00:10:06;;;;;;;11.80;3.95;;;5.70;99.90;;;;;;5114855;28;20548;-79
2022/01/23 00:12:38;;;;;;;10.20;3.20;;;5.70;99.90;;;;;;5098064;28;20052;-78
2022/01/23 00:17:49;;;;;;;17.48;3.83;;;5.80;99.90;;;;;;5116723;28;20052;-78
2022/01/23 00:20:15;;;;;;;14.05;4.03;;;5.80;99.90;;;;;;5097498;28;20086;-78
2022/01/23 00:22:47;;;;;;;16.58;4.45;;;5.80;99.90;;;;;;5080402;28;20075;-77
2022/01/23 00:30:44;;;;;;;11.85;3.33;;;5.70;99.90;;;;;;5116982;28;20192;-77
2022/01/23 00:33:11;;;;;;;12.07;3.70;;;5.70;99.90;;;;;;5118038;28;20084;-77
2022/01/23 00:35:39;;;;;;;13.43;3.95;;;5.80;99.90;;;;;;5113980;28;20048;-78
2022/01/23 00:38:07;;;;;;;9.63;3.08;;;5.70;99.90;;;;;;5117082;28;20043;-79
2022/01/23 00:40:35;;;;;;;12.68;3.60;;;5.80;99.90;;;;;;5116864;28;20071;-78
2022/01/23 00:43:06;;;;;;;16.63;3.70;;;5.80;99.90;;;;;;5115154;28;20134;-79
2022/01/23 00:45:42;;;;;;;12.52;3.60;;;5.80;99.90;;;;;;5085224;28;20043;-79
2022/01/23 00:48:09;;;;;;;12.23;3.70;;;5.80;99.90;;;;;;5114729;28;20044;-79
2022/01/23 00:50:41;;;;;;;9.52;3.90;;;5.80;99.90;;;;;;5096184;28;20105;-79
2022/01/23 00:53:09;;;;;;;11.32;3.63;;;5.80;99.90;;;;;;5114494;28;20377;-78
2022/01/23 00:55:36;;;;;;;11.20;3.75;;;5.80;99.90;;;;;;5113512;28;20438;-78
2022/01/23 00:58:03;;;;;;;13.43;3.70;;;5.80;99.90;;;;;;5096334;28;20084;-78
2022/01/23 01:00:28;;;;;;;17.73;3.97;;;5.70;99.90;;;;;;5114983;28;20328;-78
2022/01/23 01:02:55;;;;;;;14.60;3.75;;;5.80;99.90;;;;;;5096623;28;20115;-79
2022/01/23 01:05:21;;;;;;;15.20;4.35;;;5.80;99.90;;;;;;5114688;28;20051;-78
2022/01/23 01:07:47;;;;;;;18.50;3.80;;;5.80;99.90;;;;;;5079656;28;20159;-79
2022/01/23 01:10:21;;;;;;;14.65;4.25;;;5.80;99.90;;;;;;5096388;28;20312;-79
2022/01/23 01:12:50;;;;;;;14.65;4.00;;;5.80;99.90;;;;;;5114955;28;20391;-78
2022/01/23 01:38:42;;;;;;;12.40;4.10;;;5.80;99.90;;;;;;5095768;28;20596;-78
2022/01/23 01:41:08;;;;;;;15.85;4.03;;;5.80;99.90;;;;;;5096168;28;20108;-79
2022/01/23 01:43:34;;;;;;;14.77;3.95;;;5.80;99.90;;;;;;5095853;28;20123;-79
2022/01/23 01:45:59;;;;;;;16.73;4.97;;;5.80;99.90;;;;;;5095201;28;20548;-79
2022/01/23 01:48:26;;;;;;;19.13;5.97;;;5.80;99.90;;;;;;5095049;28;20494;-79
2022/01/23 01:50:55;;;;;;;14.40;4.30;;;5.80;99.90;;;;;;5078369;28;20087;-78
2022/01/23 01:53:22;;;;;;;19.33;5.78;;;5.80;99.90;;;;;;5095250;28;20094;-78
2022/01/23 01:55:54;;;;;;;;;;;5.70;99.90;;;;;;5099105;28;20047;-78
2022/01/23 02:09:54;;;;;;;17.05;5.68;;;5.70;99.90;;;;;;5096300;28;20166;-78
2022/01/23 02:18:21;;;;;;;16.00;5.32;;;5.70;99.90;;;;;;5095040;28;20204;-77
2022/01/23 02:23:32;;;;;;;18.38;5.63;;;5.70;99.90;;;;;;5095637;28;20071;-77
2022/01/23 02:56:07;;;;;;;17.60;5.35;;;5.70;99.90;;;;;;5005006;28;20414;-78
2022/01/23 02:58:48;;;;;;;15.95;5.57;;;5.80;99.90;;;;;;5072658;28;20055;-77
2022/01/23 03:01:19;;;;;;;17.52;5.10;;;5.80;99.90;;;;;;5089639;28;20052;-77
2022/01/23 03:03:48;;;;;;;17.38;4.90;;;5.70;99.90;;;;;;5106235;28;20051;-77
2022/01/23 03:14:20;;;;;;;13.57;4.40;;;5.70;99.90;;;;;;5106401;28;20055;-78
2022/01/23 03:30:36;;;;;;;16.48;5.70;;;5.70;99.90;;;;;;5116005;28;20050;-78
2022/01/23 03:33:01;;;;;;;13.63;4.47;;;5.70;99.90;;;;;;5081219;28;20135;-78
2022/01/23 03:35:28;;;;;;;14.27;4.55;;;5.70;99.90;;;;;;5100429;28;20079;-78
2022/01/23 03:37:54;;;;;;;12.98;4.55;;;5.70;99.90;;;;;;5097448;28;20048;-77
2022/01/23 03:40:20;;;;;;;19.50;4.97;;;5.60;99.90;;;;;;5097488;28;20455;-78
2022/01/23 03:42:48;;;;;;;13.52;4.32;;;5.60;99.90;;;;;;5080668;28;20056;-77
2022/01/23 03:48:01;;;;;;;14.68;4.70;;;5.70;99.90;;;;;;5114519;28;20043;-77
2022/01/23 03:50:27;;;;;;;14.07;4.85;;;5.70;99.90;;;;;;5097248;28;20075;-78
2022/01/23 03:52:53;;;;;;;14.43;4.88;;;5.70;99.90;;;;;;5114857;28;20047;-77
2022/01/23 03:55:19;;;;;;;13.40;5.10;;;5.70;99.90;;;;;;5079911;28;20043;-78
2022/01/23 03:57:44;;;;;;;13.10;4.30;;;5.60;99.90;;;;;;5097522;28;20051;-79
2022/01/23 04:00:11;;;;;;;15.23;4.90;;;5.60;99.90;;;;;;5115559;28;20040;-78
2022/01/23 04:02:37;;;;;;;16.67;5.55;;;5.60;99.90;;;;;;5080343;28;20399;-78
2022/01/23 04:05:03;;;;;;;18.60;4.78;;;5.70;99.90;;;;;;5097513;28;20135;-77
2022/01/23 04:07:30;;;;;;;12.63;4.57;;;5.70;99.90;;;;;;5097611;28;20058;-79
2022/01/23 04:09:56;;;;;;;17.02;5.47;;;5.60;99.90;;;;;;5116032;28;20097;-77
2022/01/23 04:14:54;;;;;;;14.50;5.05;;;5.60;99.90;;;;;;5100356;28;20073;-78
2022/01/23 05:00:48;;;;;;;17.33;5.38;;;5.50;99.90;;;;;;5101269;28;20052;-79
2022/01/23 05:05:58;;;;;;;19.27;5.95;;;5.50;99.90;;;;;;5100400;28;20152;-78
2022/01/23 05:08:26;;;;;;;23.92;6.45;;;5.50;99.90;;;;;;5100197;28;20054;-79
2022/01/23 05:10:52;;;;;;;15.05;5.50;;;5.50;99.90;;;;;;5100560;28;20051;-79
2022/01/23 05:13:18;;;;;;;20.13;5.95;;;5.50;99.90;;;;;;5100478;28;20075;-78
2022/01/23 05:15:43;;;;;;;23.48;6.78;;;5.50;99.90;;;;;;5082769;28;20096;-78
2022/01/23 05:18:09;;;;;;;19.83;6.32;;;5.50;99.90;;;;;;5100156;28;20096;-78
2022/01/23 05:20:38;;;;;;;20.75;6.10;;;5.50;99.90;;;;;;5118444;28;20092;-80
2022/01/23 05:23:06;;;;;;;22.63;6.85;;;5.60;99.90;;;;;;5117954;28;20440;-77
2022/01/23 05:25:36;;;;;;;23.10;6.93;;;5.60;99.90;;;;;;5099648;28;20081;-78
2022/01/23 05:28:02;;;;;;;21.10;6.78;;;5.50;99.90;;;;;;5118355;28;20047;-77
2022/01/23 05:30:28;;;;;;;22.65;6.57;;;5.50;99.90;;;;;;5119943;28;20112;-77
2022/01/23 05:32:57;;;;;;;23.38;7.13;;;5.50;99.90;;;;;;5101848;28;20071;-77
2022/01/23 05:35:24;;;;;;;20.52;5.90;;;5.50;99.90;;;;;;5101877;28;20096;-77
2022/01/23 05:37:50;;;;;;;21.75;7.30;;;5.50;99.90;;;;;;5100970;28;20052;-76
2022/01/23 05:40:18;;;;;;;25.10;6.43;;;5.50;99.90;;;;;;5120457;28;20127;-78
2022/01/23 05:42:44;;;;;;;21.35;6.55;;;5.50;99.90;;;;;;5118933;28;20085;-78
2022/01/23 05:45:10;;;;;;;22.52;7.28;;;5.50;99.90;;;;;;5082148;28;20139;-76
2022/01/23 05:47:36;;;;;;;19.02;5.85;;;5.50;99.90;;;;;;5103578;28;20048;-77
2022/01/23 05:50:04;;;;;;;23.33;7.03;;;5.50;99.90;;;;;;5115189;28;20083;-77
2022/01/23 05:52:31;;;;;;;27.73;7.45;;;5.50;99.90;;;;;;5098622;28;20095;-78
2022/01/23 05:54:58;;;;;;;29.30;6.97;;;5.50;99.90;;;;;;5119616;28;20047;-77
2022/01/23 05:57:23;;;;;;;27.55;7.32;;;5.50;99.90;;;;;;5097565;28;20047;-77
2022/01/23 05:59:50;;;;;;;26.17;7.70;;;5.50;99.90;;;;;;5114796;28;20062;-78
2022/01/23 06:02:16;;;;;;;25.70;7.73;;;5.50;99.90;;;;;;5095538;28;20050;-78
2022/01/23 06:04:42;;;;;;;24.92;7.70;;;5.50;99.90;;;;;;5095335;28;20290;-78
2022/01/23 06:07:08;;;;;;;32.58;8.05;;;5.50;99.90;;;;;;5095719;28;20492;-78
2022/01/23 06:09:36;;;;;;;28.80;7.70;;;5.50;99.90;;;;;;5096220;28;20048;-79
2022/01/23 06:12:03;;;;;;;24.55;7.53;;;5.60;99.90;;;;;;5113822;28;20047;-78
2022/01/23 06:14:29;;;;;;;24.10;7.45;;;5.50;99.90;;;;;;5095149;28;20063;-78
2022/01/23 06:16:54;;;;;;;24.60;7.78;;;5.50;99.90;;;;;;5095604;28;20040;-78
2022/01/23 06:19:20;;;;;;;30.27;8.38;;;5.50;99.90;;;;;;5079148;28;20092;-79
2022/01/23 06:21:46;;;;;;;30.77;8.05;;;5.50;99.90;;;;;;5096085;28;20055;-77
2022/01/23 06:24:30;;;;;;;32.97;8.55;;;5.40;99.90;;;;;;5079196;28;20051;-79
2022/01/23 06:26:58;;;;;;;27.52;8.20;;;5.40;99.90;;;;;;5114519;28;20439;-78
2022/01/23 06:29:25;;;;;;;23.08;8.07;;;5.40;99.90;;;;;;5113914;28;20558;-77
2022/01/23 06:31:57;;;;;;;28.85;8.10;;;5.50;99.90;;;;;;5114591;28;20052;-78
2022/01/23 06:34:24;;;;;;;27.48;7.72;;;5.50;99.90;;;;;;5078762;28;20054;-78
2022/01/23 06:36:52;;;;;;;26.85;8.07;;;5.50;99.90;;;;;;5114449;28;20105;-79
2022/01/23 06:39:19;;;;;;;24.27;7.78;;;5.50;99.90;;;;;;5095253;28;20052;-79
2022/01/23 06:41:45;;;;;;;24.98;8.10;;;5.50;99.90;;;;;;5078691;28;20128;-79
2022/01/23 06:44:11;;;;;;;21.50;6.88;;;5.50;99.90;;;;;;5094922;28;20058;-79
2022/01/23 06:46:40;;;;;;;25.85;7.35;;;5.50;99.90;;;;;;5098387;28;20472;-79
2022/01/23 06:49:07;;;;;;;28.60;7.93;;;5.50;99.90;;;;;;5095292;28;20047;-79
2022/01/23 06:51:33;;;;;;;24.60;8.10;;;5.50;99.90;;;;;;5097493;28;20441;-79
2022/01/23 06:53:59;;;;;;;26.40;7.85;;;5.60;99.90;;;;;;5097337;28;20055;-78
2022/01/23 06:56:25;;;;;;;23.42;6.85;;;5.50;99.90;;;;;;5096657;28;20047;-78
2022/01/23 06:58:50;;;;;;;23.88;7.63;;;5.50;99.90;;;;;;5097132;28;20048;-79
2022/01/23 07:01:16;;;;;;;26.13;7.95;;;5.50;99.90;;;;;;5103031;28;20136;-78
2022/01/23 07:03:42;;;;;;;25.88;7.50;;;5.50;99.90;;;;;;5098173;28;20128;-79
2022/01/23 07:06:08;;;;;;;24.45;7.68;;;5.60;99.90;;;;;;5113340;28;20367;-79
2022/01/23 07:08:34;;;;;;;26.40;8.05;;;5.50;99.90;;;;;;5095274;28;20044;-78
2022/01/23 07:11:00;;;;;;;31.00;8.63;;;5.50;99.90;;;;;;5114122;28;20087;-76
2022/01/23 07:13:26;;;;;;;20.67;8.15;;;5.50;99.90;;;;;;5078535;28;20444;-77
2022/01/23 07:15:52;;;;;;;26.38;7.88;;;5.50;99.90;;;;;;5112128;28;20044;-78
2022/01/23 07:18:18;;;;;;;23.48;8.20;;;5.50;99.90;;;;;;5094937;28;20052;-78
2022/01/23 07:20:45;;;;;;;27.17;7.97;;;5.50;99.90;;;;;;5095234;28;20075;-78
2022/01/23 07:23:11;;;;;;;21.80;6.97;;;5.50;99.90;;;;;;5114027;28;20047;-78
2022/01/23 07:25:39;;;;;;;26.35;6.72;;;5.50;99.90;;;;;;5079250;28;20079;-78
2022/01/23 07:28:09;;;;;;;19.75;6.47;;;5.40;99.90;;;;;;5113780;28;20066;-78
2022/01/23 07:30:44;;;;;;;30.27;7.18;;;5.40;99.90;;;;;;5098691;28;20355;-78
2022/01/23 07:33:11;;;;;;;23.67;6.50;;;5.40;99.90;;;;;;5098643;28;20479;-79
2022/01/23 07:35:36;;;;;;;23.20;6.68;;;5.40;99.90;;;;;;5098794;28;20048;-79
2022/01/23 07:38:02;;;;;;;20.27;7.15;;;5.40;99.90;;;;;;5117527;28;20049;-78
2022/01/23 07:40:28;;;;;;;21.48;6.68;;;5.40;99.90;;;;;;5097752;28;20108;-78
2022/01/23 07:42:54;;;;;;;22.23;6.72;;;5.40;99.90;;;;;;5097913;28;20431;-78
2022/01/23 07:45:19;;;;;;;20.17;6.30;;;5.40;99.90;;;;;;5115588;28;20047;-78
2022/01/23 07:47:46;;;;;;;22.52;6.60;;;5.40;99.90;;;;;;5081821;28;20390;-79
2022/01/23 07:50:12;;;;;;;21.70;7.60;;;5.40;99.90;;;;;;5116085;28;20064;-78
2022/01/23 07:52:39;;;;;;;25.88;7.20;;;5.40;99.90;;;;;;5098105;28;20396;-79
2022/01/23 07:55:09;;;;;;;19.88;7.38;;;5.40;99.90;;;;;;5097711;28;20047;-78
2022/01/23 07:57:36;;;;;;;17.35;5.97;;;5.40;99.90;;;;;;5081232;28;20055;-78
2022/01/23 08:00:05;;;;;;;19.90;7.03;;;5.50;99.90;;;;;;5116090;28;20047;-78
2022/01/23 08:02:31;;;;;;;19.17;7.00;;;5.50;99.90;;;;;;5098151;28;20062;-77
2022/01/23 08:04:57;;;;;;;21.02;6.32;;;5.50;99.90;;;;;;5097915;28;20126;-76
2022/01/23 08:09:59;;;;;;;19.52;5.85;;;5.60;99.90;;;;;;5101936;28;20448;-77
2022/01/23 08:12:26;;;;;;;22.23;5.65;;;5.60;99.90;;;;;;5117230;28;20131;-76
2022/01/23 08:14:52;;;;;;;21.85;6.22;;;5.50;99.90;;;;;;5119695;28;20118;-77
2022/01/23 08:17:19;;;;;;;16.77;5.80;;;5.60;99.90;;;;;;5118113;28;20051;-76
2022/01/23 08:19:45;;;;;;;19.80;5.57;;;5.60;99.90;;;;;;5099756;28;20051;-76
2022/01/23 08:22:11;;;;;;;17.95;5.32;;;5.70;99.90;;;;;;5100532;28;20071;-77
2022/01/23 08:24:37;;;;;;;14.93;4.97;;;5.70;99.90;;;;;;5117737;28;20062;-78
2022/01/23 08:27:04;;;;;;;16.70;4.97;;;5.70;99.90;;;;;;5101337;28;20115;-77
2022/01/23 08:29:29;;;;;;;17.52;5.63;;;5.70;99.90;;;;;;5082638;28;20055;-77
2022/01/23 08:31:55;;;;;;;18.40;5.68;;;5.80;99.90;;;;;;5080483;28;20043;-77
2022/01/23 08:34:21;;;;;;;15.23;5.32;;;5.70;99.90;;;;;;5098378;28;20062;-78
2022/01/23 08:36:47;;;;;;;19.10;6.07;;;5.80;99.90;;;;;;5063635;28;20130;-78
2022/01/23 08:39:15;;;;;;;16.63;5.78;;;5.80;99.90;;;;;;5063911;28;20155;-77
2022/01/23 08:41:50;;;;;;;16.73;5.35;;;5.80;99.90;;;;;;5098494;28;20171;-78
2022/01/23 08:44:21;;;;;;;16.98;5.63;;;5.80;99.90;;;;;;5081340;28;20079;-78
2022/01/23 08:46:48;;;;;;;21.00;6.07;;;5.90;99.90;;;;;;5083772;28;20159;-77
2022/01/23 08:49:17;;;;;;;17.73;5.95;;;5.90;99.90;;;;;;5125251;28;20046;-77
2022/01/23 08:51:44;;;;;;;18.13;6.35;;;5.90;99.90;;;;;;5111839;28;20051;-79
2022/01/23 08:54:11;;;;;;;18.65;5.60;;;5.90;99.90;;;;;;5111171;28;20047;-78
2022/01/23 08:56:40;;;;;;;17.20;5.53;;;5.90;99.90;;;;;;5107544;28;20057;-77
2022/01/23 08:59:06;;;;;;;14.38;5.13;;;6.00;99.90;;;;;;5106835;28;20050;-77
2022/01/23 09:01:39;;;;;;;15.35;5.55;;;6.00;99.90;;;;;;5108033;28;20183;-79
2022/01/23 09:04:07;;;;;;;16.10;5.80;;;6.10;99.90;;;;;;5093103;28;20062;-78
2022/01/23 09:06:35;;;;;;;17.20;5.97;;;6.00;99.90;;;;;;5113464;28;20471;-79
2022/01/23 09:09:04;;;;;;;18.98;5.80;;;6.00;99.90;;;;;;5109681;28;20109;-79
2022/01/23 09:14:07;;;;;;;17.40;6.00;;;6.10;99.90;;;;;;5104800;28;20128;-78
2022/01/23 09:16:37;;;;;;;18.55;6.28;;;6.10;99.90;;;;;;5100819;28;20120;-77
2022/01/23 09:19:04;;;;;;;17.98;6.82;;;6.10;99.90;;;;;;5116532;28;20039;-77
2022/01/23 09:21:30;;;;;;;25.83;7.53;;;6.20;99.90;;;;;;5117951;28;20495;-80
2022/01/23 09:23:55;;;;;;;20.20;8.27;;;6.20;99.90;;;;;;5100831;28;20040;-78
2022/01/23 09:26:23;;;;;;;21.13;7.72;;;6.30;99.90;;;;;;5118755;28;20050;-78
2022/01/23 09:28:54;;;;;;;20.77;7.38;;;6.30;99.90;;;;;;5102936;28;20139;-78
2022/01/23 09:31:34;;;;;;;17.92;7.28;;;6.40;99.90;;;;;;5121641;28;20150;-78
2022/01/23 09:34:00;;;;;;;19.25;6.65;;;6.40;99.90;;;;;;5090467;28;20051;-79
2022/01/23 09:36:28;;;;;;;20.80;7.00;;;6.50;99.90;;;;;;5090881;28;20040;-78
2022/01/23 09:38:55;;;;;;;21.30;7.43;;;6.60;99.90;;;;;;5100252;28;20064;-77
2022/01/23 09:41:28;;;;;;;23.17;6.93;;;6.60;99.90;;;;;;5097820;28;20120;-78
2022/01/23 09:43:55;;;;;;;23.48;7.22;;;6.50;99.90;;;;;;5082940;28;20082;-79
2022/01/23 09:46:24;;;;;;;22.70;6.78;;;6.50;99.90;;;;;;5083465;28;20052;-79
2022/01/23 09:48:52;;;;;;;20.83;7.15;;;6.60;99.90;;;;;;5095637;28;20389;-79
2022/01/23 09:51:24;;;;;;;17.60;6.63;;;6.60;99.90;;;;;;5076078;28;20048;-78
2022/01/23 09:53:56;;;;;;;17.58;7.38;;;6.60;99.90;;;;;;5091985;28;20156;-79
2022/01/23 09:56:27;;;;;;;20.60;7.72;;;6.60;99.90;;;;;;5092230;28;20048;-78
2022/01/23 09:58:57;;;;;;;16.77;6.43;;;6.60;99.90;;;;;;5094002;28;20045;-79
2022/01/23 10:01:24;;;;;;;19.55;6.35;;;6.60;99.90;;;;;;5108564;28;20040;-79
2022/01/23 10:03:50;;;;;;;20.92;7.22;;;6.70;99.90;;;;;;5091424;28;20125;-78
2022/01/23 10:06:16;;;;;;;18.43;6.87;;;6.70;99.90;;;;;;5059657;28;20411;-79
2022/01/23 10:08:43;;;;;;;18.00;7.13;;;6.60;99.90;;;;;;5092860;28;20048;-78
2022/01/23 10:11:12;;;;;;;22.85;7.28;;;6.70;99.90;;;;;;5091381;28;20450;-78
2022/01/23 10:13:40;;;;;;;21.83;6.57;;;6.70;99.90;;;;;;5073842;28;20132;-80
2022/01/23 10:16:06;;;;;;;20.42;7.03;;;6.80;99.90;;;;;;5093615;28;20052;-79
2022/01/23 10:18:33;;;;;;;19.77;7.53;;;6.90;99.90;;;;;;5062045;28;20418;-81
2022/01/23 10:21:02;;;;;;;16.77;6.65;;;6.80;99.90;;;;;;5094030;28;20048;-80
2022/01/23 10:23:28;;;;;;;17.80;6.30;;;6.80;99.90;;;;;;5077360;28;20048;-79
2022/01/23 10:25:54;;;;;;;17.45;6.20;;;7.00;99.90;;;;;;5101221;28;20430;-81
2022/01/23 10:28:28;;;;;;;17.42;5.90;;;7.10;99.90;;;;;;5082911;28;20062;-79
2022/01/23 10:30:58;;;;;;;17.05;5.65;;;7.20;99.90;;;;;;5095490;28;20060;-79
2022/01/23 10:33:28;;;;;;;16.77;5.13;;;7.10;99.90;;;;;;5079020;28;20104;-80
2022/01/23 10:36:19;;;;;;;15.23;5.68;;;7.20;99.90;;;;;;5076493;28;20044;-79
2022/01/23 10:39:01;;;;;;;15.50;5.60;;;7.30;99.90;;;;;;5080821;28;20081;-80
2022/01/23 10:47:32;;;;;;;11.07;4.20;;;7.50;99.90;;;;;;5102083;28;19924;-79
2022/01/23 10:50:07;;;;;;;14.10;4.60;;;7.50;99.90;;;;;;5087177;28;20036;-80
2022/01/23 10:52:40;;;;;;;11.52;3.92;;;7.60;99.90;;;;;;5081095;28;20048;-79
2022/01/23 10:55:25;;;;;;;12.32;4.45;;;7.60;99.90;;;;;;5100758;28;20055;-77
2022/01/23 10:57:58;;;;;;;11.60;4.68;;;7.60;99.90;;;;;;5078800;28;20044;-78
2022/01/23 11:00:36;;;;;;;12.10;4.65;;;7.60;99.90;;;;;;5099540;28;20348;-79
2022/01/23 11:03:23;;;;;;;11.65;4.22;;;7.50;99.90;;;;;;5101389;28;20439;-79
2022/01/23 11:05:51;;;;;;;11.77;2.30;;;7.60;99.90;;;;;;5097317;28;20062;-78
2022/01/23 11:08:25;;;;;;;7.05;2.30;;;7.60;99.90;;;;;;5112819;28;20083;-77
2022/01/23 11:11:08;;;;;;;10.07;4.00;;;7.60;99.90;;;;;;5099194;28;20043;-79
2022/01/23 11:19:30;;;;;;;9.55;3.00;;;7.70;99.90;;;;;;5098033;28;20052;-79
2022/01/23 11:22:22;;;;;;;9.38;2.47;;;7.70;99.90;;;;;;5080093;28;20054;-77
2022/01/23 11:24:49;;;;;;;6.85;1.88;;;7.80;99.90;;;;;;5101590;28;20052;-80
2022/01/23 11:27:20;;;;;;;5.90;1.70;;;7.80;99.90;;;;;;5097790;28;20048;-80
2022/01/23 11:30:00;;;;;;;7.72;2.40;;;7.80;99.90;;;;;;5096763;28;20306;-79
2022/01/23 11:32:30;;;;;;;3.30;0.65;;;7.80;99.90;;;;;;5098729;28;20471;-79
2022/01/23 11:35:04;;;;;;;2.05;0.35;;;7.80;99.90;;;;;;5099231;28;20048;-80
2022/01/23 11:37:30;;;;;;;0.98;0.20;;;7.70;99.90;;;;;;5101758;28;20450;-79
2022/01/23 11:40:01;;;;;;;0.38;0.10;;;7.70;99.90;;;;;;5084896;28;20062;-81
2022/01/23 11:50:51;;;;;;;3.15;0.77;;;7.70;99.90;;;;;;5107042;28;20048;-81
2022/01/23 11:56:29;;;;;;;5.35;1.75;;;7.60;99.90;;;;;;5104230;28;20052;-79
2022/01/23 11:59:28;;;;;;;3.10;0.70;;;7.60;99.90;;;;;;5101298;28;20047;-81
2022/01/23 12:02:13;;;;;;;2.45;0.45;;;7.70;99.90;;;;;;5101812;28;20048;-80
2022/01/23 12:04:42;;;;;;;3.70;0.65;;;7.60;99.90;;;;;;5085176;28;20399;-81
2022/01/23 12:07:11;;;;;;;5.32;0.70;;;7.60;99.90;;;;;;5102509;28;20048;-79
2022/01/23 12:09:39;;;;;;;3.67;0.82;;;7.70;99.90;;;;;;5101087;28;20066;-80
2022/01/23 12:12:27;;;;;;;2.00;0.50;;;7.70;99.90;;;;;;5082908;28;20052;-80
2022/01/23 12:18:22;;;;;;;2.92;0.63;;;7.70;99.90;;;;;;5107172;28;20056;-82
2022/01/23 12:28:31;;;;;;;2.80;0.65;;;7.80;99.90;;;;;;5099502;28;20055;-81
2022/01/23 12:31:23;;;;;;;2.50;0.60;;;7.80;99.90;;;;;;5108247;28;20043;-82
2022/01/23 12:34:02;;;;;;;3.42;0.50;;;7.80;99.90;;;;;;5110753;28;20054;-81
2022/01/23 12:36:43;;;;;;;1.25;0.30;;;7.70;99.90;;;;;;5108999;28;20066;-82
2022/01/23 12:39:09;;;;;;;3.15;0.38;;;7.70;99.90;;;;;;5099779;28;20083;-80
2022/01/23 12:45:48;;;;;;;1.02;0.20;;;7.70;99.90;;;;;;5089096;28;20161;-80
2022/01/23 12:48:43;;;;;;;1.90;0.60;;;7.70;99.90;;;;;;5122558;28;20109;-80
2022/01/23 12:51:16;;;;;;;2.10;0.30;;;7.60;99.90;;;;;;5071929;28;20062;-80
2022/01/23 12:53:46;;;;;;;1.50;0.30;;;7.60;99.90;;;;;;5100705;28;20056;-80
2022/01/23 12:56:23;;;;;;;4.15;0.35;;;7.60;99.90;;;;;;5117452;28;20330;-79
2022/01/23 12:59:06;;;;;;;1.17;0.28;;;7.60;99.90;;;;;;5084492;28;20048;-80
2022/01/23 13:01:38;;;;;;;0.93;0.28;;;7.60;99.90;;;;;;5117787;28;20044;-82
2022/01/23 13:04:08;;;;;;;1.48;0.30;;;7.60;99.90;;;;;;5083081;28;20052;-81
2022/01/23 13:07:09;;;;;;;;;;;;;;;;;;;;;
2022/01/23 13:09:53;;;;;;;1.67;0.35;;;7.60;99.90;;;;;;5086911;28;20076;-80
2022/01/23 13:12:36;;;;;;;1.33;0.30;;;7.70;99.90;;;;;;5078826;28;20604;-79
2022/01/23 13:18:48;;;;;;;3.20;0.93;;;7.60;99.90;;;;;;5083233;28;20055;-79
2022/01/23 13:27:24;;;;;;;4.68;0.80;;;7.50;99.90;;;;;;5116283;28;20074;-78
2022/01/23 13:30:12;;;;;;;3.17;0.80;;;7.70;99.90;;;;;;5084180;28;20108;-80
2022/01/23 13:32:44;;;;;;;3.80;0.90;;;7.70;99.90;;;;;;5094573;28;20045;-80
2022/01/23 13:35:16;;;;;;;4.15;1.08;;;7.60;99.90;;;;;;5085289;28;20055;-81
2022/01/23 13:37:48;;;;;;;5.47;1.20;;;7.60;99.90;;;;;;5122373;28;20049;-81
2022/01/23 13:40:26;;;;;;;4.70;1.00;;;7.50;99.90;;;;;;5113390;28;20372;-81
2022/01/23 14:03:03;;;;;;;4.30;1.20;;;7.60;99.90;;;;;;5127630;28;20039;-82
2022/01/23 14:05:32;;;;;;;4.90;1.30;;;7.30;99.90;;;;;;5075718;28;20055;-81
2022/01/23 14:08:00;;;;;;;6.68;1.95;;;7.30;99.90;;;;;;5093102;28;20062;-81
2022/01/23 14:10:35;;;;;;;5.07;1.60;;;7.30;99.90;;;;;;5108089;28;20036;-81
2022/01/23 14:13:19;;;;;;;4.72;1.52;;;7.30;99.90;;;;;;5102697;28;20050;-81
2022/01/23 14:15:50;;;;;;;7.68;1.85;;;7.40;99.90;;;;;;5114303;28;20043;-80
2022/01/23 14:18:22;;;;;;;8.70;2.03;;;7.30;99.90;;;;;;5126039;28;20069;-79
2022/01/23 14:24:38;;;;;;;6.38;2.45;;;7.30;99.90;;;;;;5131767;28;20034;-80
2022/01/23 14:27:13;;;;;;;7.72;2.50;;;7.30;99.90;;;;;;5132659;28;20040;-80
2022/01/23 14:29:53;;;;;;;6.93;2.38;;;7.30;99.90;;;;;;5131084;28;20062;-80
2022/01/23 14:32:28;;;;;;;11.20;3.70;;;7.20;99.90;;;;;;5114241;28;20062;-81
2022/01/23 14:35:28;;;;;;;14.48;3.70;;;7.20;99.90;;;;;;5129475;28;20051;-82
2022/01/23 14:38:19;;;;;;;11.32;4.32;;;7.20;99.90;;;;;;5076774;28;20115;-81
2022/01/23 14:41:14;;;;;;;10.13;3.30;;;7.20;99.90;;;;;;5070350;28;20049;-81
2022/01/23 14:43:42;;;;;;;9.98;3.70;;;7.10;99.90;;;;;;5087844;28;20056;-80
2022/01/23 14:46:10;;;;;;;12.20;4.20;;;7.10;99.90;;;;;;5126799;28;20045;-80
2022/01/23 14:48:44;;;;;;;;;;;7.10;99.90;;;;;;5112248;28;20102;-80
2022/01/23 14:51:24;;;;;;;16.27;4.38;;;7.10;99.90;;;;;;5092130;28;19920;-81
2022/01/23 14:53:50;;;;;;;9.73;3.60;;;7.00;99.90;;;;;;5092511;28;20079;-82
2022/01/23 14:56:16;;;;;;;8.95;3.58;;;7.10;99.90;;;;;;5125352;28;20096;-79
2022/01/23 14:58:43;;;;;;;11.52;3.92;;;7.10;99.90;;;;;;5093505;28;20052;-80
2022/01/23 15:01:12;;;;;;;8.45;3.53;;;7.10;99.90;;;;;;5092830;28;20053;-81
2022/01/23 15:03:41;;;;;;;11.35;4.20;;;7.10;99.90;;;;;;5097329;28;20029;-81
2022/01/23 15:06:07;;;;;;;11.23;5.00;;;7.10;99.90;;;;;;5093556;28;20076;-80
2022/01/23 15:08:35;;;;;;;12.77;5.18;;;7.00;99.90;;;;;;5128723;28;20044;-80
2022/01/23 15:11:03;;;;;;;12.90;5.38;;;7.00;99.90;;;;;;5109134;28;20105;-79
2022/01/23 15:13:33;;;;;;;12.73;4.93;;;7.10;99.90;;;;;;5092225;28;20040;-81
2022/01/23 15:16:01;;;;;;;15.38;4.78;;;7.00;99.90;;;;;;5084432;28;20056;-79
2022/01/23 15:18:27;;;;;;;7.70;3.17;;;7.00;99.90;;;;;;5082294;28;20168;-81
2022/01/23 15:20:56;;;;;;;10.05;3.30;;;6.90;99.90;;;;;;5109134;28;20058;-81
2022/01/23 15:23:23;;;;;;;7.63;2.45;;;6.90;99.90;;;;;;5086246;28;20047;-80
2022/01/23 15:25:49;;;;;;;7.50;2.30;;;6.90;99.90;;;;;;5083795;28;20166;-80
2022/01/23 15:28:15;;;;;;;5.70;1.90;;;6.90;99.90;;;;;;5085301;28;20044;-80
2022/01/23 15:30:41;;;;;;;4.78;1.65;;;6.90;99.90;;;;;;5112273;28;20047;-81
2022/01/23 15:33:08;;;;;;;6.63;1.95;;;6.90;99.90;;;;;;5109830;28;20050;-81
2022/01/23 15:35:36;;;;;;;20.17;12.55;;;6.90;99.90;;;;;;5089445;28;20083;-80
2022/01/23 15:38:03;;;;;;;21.92;13.98;;;6.90;99.90;;;;;;5092497;28;20097;-79
2022/01/23 15:40:29;;;;;;;13.63;7.77;;;6.90;99.90;;;;;;5127548;28;20084;-81
2022/01/23 15:42:58;;;;;;;6.50;1.60;;;6.90;99.90;;;;;;5090641;28;20300;-81
2022/01/23 15:45:25;;;;;;;5.38;1.80;;;6.80;99.90;;;;;;5104773;28;20069;-81
2022/01/23 15:47:51;;;;;;;5.93;1.98;;;6.80;99.90;;;;;;5087639;28;20048;-80
2022/01/23 15:50:19;;;;;;;5.72;1.95;;;6.80;99.90;;;;;;5108941;28;20043;-81
2022/01/23 15:52:47;;;;;;;6.53;2.03;;;6.80;99.90;;;;;;5122580;28;20125;-81
2022/01/23 15:55:14;;;;;;;6.00;1.95;;;6.70;99.90;;;;;;5100325;28;20048;-82
2022/01/23 15:57:41;;;;;;;6.47;2.20;;;6.70;99.90;;;;;;5116693;28;20034;-81
2022/01/23 16:00:12;;;;;;;8.77;2.70;;;6.70;99.90;;;;;;5133034;28;20047;-79
2022/01/23 16:02:39;;;;;;;8.20;3.35;;;6.70;99.90;;;;;;5113774;28;20087;-80
2022/01/23 16:05:05;;;;;;;8.38;2.58;;;6.70;99.90;;;;;;5093268;28;20430;-81
2022/01/23 16:07:31;;;;;;;6.50;2.30;;;6.70;99.90;;;;;;5116466;28;20040;-80
2022/01/23 16:09:57;;;;;;;7.05;2.55;;;6.70;99.90;;;;;;5099495;28;20093;-80
2022/01/23 16:12:28;;;;;;;8.57;2.60;;;6.70;99.90;;;;;;5117117;28;20086;-80
2022/01/23 16:14:54;;;;;;;9.63;2.60;;;6.60;99.90;;;;;;5133459;28;20039;-80
2022/01/23 16:17:20;;;;;;;10.18;3.63;;;6.60;99.90;;;;;;5115542;28;20039;-80
2022/01/23 16:19:45;;;;;;;9.88;4.60;;;6.70;99.90;;;;;;5122772;28;20036;-81
2022/01/23 16:22:11;;;;;;;12.40;4.97;;;6.60;99.90;;;;;;5068386;28;20059;-79
2022/01/23 16:24:37;;;;;;;8.45;4.13;;;6.70;99.90;;;;;;5132838;28;20055;-80
2022/01/23 16:27:09;;;;;;;11.65;3.80;;;6.60;99.90;;;;;;5135872;28;20035;-80
2022/01/23 16:29:37;;;;;;;11.60;4.65;;;6.70;99.90;;;;;;5136063;28;20081;-80
2022/01/23 16:32:06;;;;;;;10.27;4.20;;;6.70;99.90;;;;;;5096547;28;20048;-80
2022/01/23 16:34:36;;;;;;;8.95;4.20;;;6.70;99.90;;;;;;5101419;28;20047;-80
2022/01/23 16:37:09;;;;;;;10.48;4.00;;;6.60;99.90;;;;;;5119244;28;20062;-81
2022/01/23 16:39:38;;;;;;;12.00;4.78;;;6.60;99.90;;;;;;5114027;28;20032;-81
2022/01/23 16:42:08;;;;;;;11.85;5.18;;;6.60;99.90;;;;;;5108386;28;20044;-80
2022/01/23 16:44:42;;;;;;;8.68;4.00;;;6.70;99.90;;;;;;5113914;28;20083;-80
2022/01/23 16:47:11;;;;;;;9.60;3.85;;;6.50;99.90;;;;;;5114224;28;20044;-80
2022/01/23 16:49:45;;;;;;;9.55;3.33;;;6.50;99.90;;;;;;5130402;28;20464;-80
2022/01/23 16:52:17;;;;;;;10.48;4.93;;;6.50;99.90;;;;;;5091767;28;20043;-80
2022/01/23 16:55:07;;;;;;;;;;;;;;;;;;;;;
2022/01/23 16:57:41;;;;;;;8.77;4.05;;;6.50;99.90;;;;;;5124059;28;20044;-80